sensor_id;sensor_type;location;lat;lon;timestamp;P1;durP1;ratioP1;P2;durP2;ratioP2
23080;SDS011;11708;50.570;8.532;2023-03-01T00:02:04;18.40;;;9.25;;
23080;SDS011;11708;50.570;8.532;2023-03-01T00:04:29;18.25;;;9.55;;
23080;SDS011;11708;50.570;8.532;2023-03-01T00:06:56;15.27;;;8.73;;
23080;SDS011;11708;50.570;8.532;2023-03-01T00:09:21;13.57;;;8.40;;
23080;SDS011;11708;50.570;8.532;2023-03-01T00:11:47;14.80;;;8.38;;
23080;SDS011;11708;50.570;8.532;2023-03-01T00:14:13;15.05;;;8.57;;
23080;SDS011;11708;50.570;8.532;2023-03-01T00:16:41;16.30;;;9.57;;
23080;SDS011;11708;50.570;8.532;2023-03-01T00:19:09;17.45;;;8.52;;
23080;SDS011;11708;50.570;8.532;2023-03-01T00:21:38;16.20;;;8.68;;
23080;SDS011;11708;50.570;8.532;2023-03-01T00:24:04;17.40;;;9.25;;
23080;SDS011;11708;50.570;8.532;2023-03-01T00:26:30;15.63;;;8.93;;
23080;SDS011;11708;50.570;8.532;2023-03-01T00:28:57;15.20;;;8.35;;
23080;SDS011;11708;50.570;8.532;2023-03-01T00:31:24;17.00;;;9.10;;
23080;SDS011;11708;50.570;8.532;2023-03-01T00:33:52;15.30;;;9.20;;
23080;SDS011;11708;50.570;8.532;2023-03-01T00:36:22;16.58;;;9.52;;
23080;SDS011;11708;50.570;8.532;2023-03-01T00:38:49;17.95;;;9.27;;
23080;SDS011;11708;50.570;8.532;2023-03-01T00:41:15;16.73;;;9.02;;
23080;SDS011;11708;50.570;8.532;2023-03-01T00:43:42;17.55;;;8.98;;
23080;SDS011;11708;50.570;8.532;2023-03-01T00:46:09;17.75;;;9.23;;
23080;SDS011;11708;50.570;8.532;2023-03-01T00:48:37;16.45;;;8.65;;
23080;SDS011;11708;50.570;8.532;2023-03-01T00:51:07;15.40;;;8.63;;
23080;SDS011;11708;50.570;8.532;2023-03-01T00:53:37;17.48;;;9.18;;
23080;SDS011;11708;50.570;8.532;2023-03-01T00:56:04;17.27;;;9.32;;
23080;SDS011;11708;50.570;8.532;2023-03-01T00:58:31;17.35;;;9.32;;
23080;SDS011;11708;50.570;8.532;2023-03-01T01:00:57;17.88;;;9.85;;
23080;SDS011;11708;50.570;8.532;2023-03-01T01:03:23;17.23;;;9.18;;
23080;SDS011;11708;50.570;8.532;2023-03-01T01:05:50;16.50;;;9.27;;
23080;SDS011;11708;50.570;8.532;2023-03-01T01:08:19;15.95;;;9.10;;
23080;SDS011;11708;50.570;8.532;2023-03-01T01:10:46;17.75;;;9.85;;
23080;SDS011;11708;50.570;8.532;2023-03-01T01:13:12;17.30;;;9.48;;
23080;SDS011;11708;50.570;8.532;2023-03-01T01:15:38;15.05;;;9.05;;
23080;SDS011;11708;50.570;8.532;2023-03-01T01:18:04;19.98;;;9.95;;
23080;SDS011;11708;50.570;8.532;2023-03-01T01:20:30;16.58;;;9.32;;
23080;SDS011;11708;50.570;8.532;2023-03-01T01:22:56;23.08;;;9.68;;
23080;SDS011;11708;50.570;8.532;2023-03-01T01:25:21;19.10;;;9.10;;
23080;SDS011;11708;50.570;8.532;2023-03-01T01:27:49;18.48;;;9.88;;
23080;SDS011;11708;50.570;8.532;2023-03-01T01:30:16;16.38;;;9.13;;
23080;SDS011;11708;50.570;8.532;2023-03-01T01:32:41;18.95;;;9.93;;
23080;SDS011;11708;50.570;8.532;2023-03-01T01:35:07;13.88;;;8.32;;
23080;SDS011;11708;50.570;8.532;2023-03-01T01:37:33;20.20;;;8.68;;
23080;SDS011;11708;50.570;8.532;2023-03-01T01:39:58;19.45;;;10.48;;
23080;SDS011;11708;50.570;8.532;2023-03-01T01:42:25;18.60;;;10.07;;
23080;SDS011;11708;50.570;8.532;2023-03-01T01:47:55;18.85;;;10.13;;
23080;SDS011;11708;50.570;8.532;2023-03-01T01:50:25;17.52;;;9.80;;
23080;SDS011;11708;50.570;8.532;2023-03-01T01:52:52;18.70;;;10.00;;
23080;SDS011;11708;50.570;8.532;2023-03-01T01:55:20;19.20;;;9.57;;
23080;SDS011;11708;50.570;8.532;2023-03-01T01:57:51;15.00;;;9.02;;
23080;SDS011;11708;50.570;8.532;2023-03-01T02:00:21;17.67;;;9.65;;
23080;SDS011;11708;50.570;8.532;2023-03-01T02:02:51;20.35;;;10.57;;
23080;SDS011;11708;50.570;8.532;2023-03-01T02:05:26;17.42;;;9.85;;
23080;SDS011;11708;50.570;8.532;2023-03-01T02:08:01;18.88;;;10.05;;
23080;SDS011;11708;50.570;8.532;2023-03-01T02:10:26;19.75;;;10.25;;
23080;SDS011;11708;50.570;8.532;2023-03-01T02:12:53;18.05;;;9.82;;
23080;SDS011;11708;50.570;8.532;2023-03-01T02:15:21;16.35;;;9.93;;
23080;SDS011;11708;50.570;8.532;2023-03-01T02:17:47;47.70;;;19.85;;
23080;SDS011;11708;50.570;8.532;2023-03-01T02:20:23;36.28;;;15.32;;
23080;SDS011;11708;50.570;8.532;2023-03-01T02:22:56;22.05;;;11.95;;
23080;SDS011;11708;50.570;8.532;2023-03-01T02:25:34;19.05;;;11.15;;
23080;SDS011;11708;50.570;8.532;2023-03-01T02:30:43;17.25;;;10.18;;
23080;SDS011;11708;50.570;8.532;2023-03-01T02:33:31;18.90;;;10.20;;
23080;SDS011;11708;50.570;8.532;2023-03-01T02:35:58;19.40;;;9.85;;
23080;SDS011;11708;50.570;8.532;2023-03-01T02:38:38;19.83;;;9.93;;
23080;SDS011;11708;50.570;8.532;2023-03-01T02:41:04;19.17;;;10.80;;
23080;SDS011;11708;50.570;8.532;2023-03-01T02:43:31;14.73;;;9.30;;
23080;SDS011;11708;50.570;8.532;2023-03-01T02:46:03;20.33;;;10.75;;
23080;SDS011;11708;50.570;8.532;2023-03-01T02:48:46;16.95;;;9.98;;
23080;SDS011;11708;50.570;8.532;2023-03-01T02:51:18;18.77;;;9.60;;
23080;SDS011;11708;50.570;8.532;2023-03-01T02:56:18;19.38;;;10.10;;
23080;SDS011;11708;50.570;8.532;2023-03-01T02:58:44;17.10;;;9.90;;
23080;SDS011;11708;50.570;8.532;2023-03-01T03:01:12;17.17;;;9.68;;
23080;SDS011;11708;50.570;8.532;2023-03-01T03:03:40;19.40;;;9.50;;
23080;SDS011;11708;50.570;8.532;2023-03-01T03:06:06;19.55;;;10.50;;
23080;SDS011;11708;50.570;8.532;2023-03-01T03:08:32;18.30;;;10.20;;
23080;SDS011;11708;50.570;8.532;2023-03-01T03:10:57;22.80;;;10.48;;
23080;SDS011;11708;50.570;8.532;2023-03-01T03:13:23;20.80;;;10.48;;
23080;SDS011;11708;50.570;8.532;2023-03-01T03:15:53;20.00;;;10.98;;
23080;SDS011;11708;50.570;8.532;2023-03-01T03:18:20;20.98;;;11.30;;
23080;SDS011;11708;50.570;8.532;2023-03-01T03:20:45;18.63;;;10.68;;
23080;SDS011;11708;50.570;8.532;2023-03-01T03:23:11;19.13;;;9.75;;
23080;SDS011;11708;50.570;8.532;2023-03-01T03:25:37;19.33;;;10.65;;
23080;SDS011;11708;50.570;8.532;2023-03-01T03:28:03;17.30;;;10.07;;
23080;SDS011;11708;50.570;8.532;2023-03-01T03:30:34;20.83;;;9.82;;
23080;SDS011;11708;50.570;8.532;2023-03-01T03:33:01;18.52;;;10.15;;
23080;SDS011;11708;50.570;8.532;2023-03-01T03:35:34;37.47;;;11.90;;
23080;SDS011;11708;50.570;8.532;2023-03-01T03:38:05;32.70;;;12.35;;
23080;SDS011;11708;50.570;8.532;2023-03-01T03:43:07;35.03;;;11.80;;
23080;SDS011;11708;50.570;8.532;2023-03-01T03:45:35;22.80;;;10.52;;
23080;SDS011;11708;50.570;8.532;2023-03-01T03:48:02;19.20;;;9.27;;
23080;SDS011;11708;50.570;8.532;2023-03-01T03:50:29;18.80;;;9.63;;
23080;SDS011;11708;50.570;8.532;2023-03-01T03:52:55;17.00;;;10.40;;
23080;SDS011;11708;50.570;8.532;2023-03-01T03:55:21;18.00;;;9.50;;
23080;SDS011;11708;50.570;8.532;2023-03-01T03:57:47;18.67;;;10.13;;
23080;SDS011;11708;50.570;8.532;2023-03-01T04:00:20;16.52;;;9.68;;
23080;SDS011;11708;50.570;8.532;2023-03-01T04:02:48;19.23;;;10.40;;
23080;SDS011;11708;50.570;8.532;2023-03-01T04:05:15;17.50;;;9.88;;
23080;SDS011;11708;50.570;8.532;2023-03-01T04:07:43;20.00;;;10.52;;
23080;SDS011;11708;50.570;8.532;2023-03-01T04:10:12;20.88;;;9.95;;
23080;SDS011;11708;50.570;8.532;2023-03-01T04:12:39;20.83;;;10.80;;
23080;SDS011;11708;50.570;8.532;2023-03-01T04:15:05;17.50;;;10.05;;
23080;SDS011;11708;50.570;8.532;2023-03-01T04:17:44;21.02;;;10.35;;
23080;SDS011;11708;50.570;8.532;2023-03-01T04:20:15;17.52;;;10.23;;
23080;SDS011;11708;50.570;8.532;2023-03-01T04:22:43;18.95;;;9.82;;
23080;SDS011;11708;50.570;8.532;2023-03-01T04:25:12;20.15;;;11.05;;
23080;SDS011;11708;50.570;8.532;2023-03-01T04:27:39;20.58;;;11.20;;
23080;SDS011;11708;50.570;8.532;2023-03-01T04:30:05;18.05;;;9.50;;
23080;SDS011;11708;50.570;8.532;2023-03-01T04:32:31;18.88;;;9.77;;
23080;SDS011;11708;50.570;8.532;2023-03-01T04:34:57;19.48;;;10.45;;
23080;SDS011;11708;50.570;8.532;2023-03-01T04:37:23;18.92;;;10.43;;
23080;SDS011;11708;50.570;8.532;2023-03-01T04:39:49;23.77;;;11.85;;
23080;SDS011;11708;50.570;8.532;2023-03-01T04:42:14;19.73;;;10.52;;
23080;SDS011;11708;50.570;8.532;2023-03-01T04:44:41;23.00;;;11.25;;
23080;SDS011;11708;50.570;8.532;2023-03-01T04:47:07;19.15;;;10.48;;
23080;SDS011;11708;50.570;8.532;2023-03-01T04:49:33;18.70;;;9.27;;
23080;SDS011;11708;50.570;8.532;2023-03-01T04:51:58;19.02;;;10.50;;
23080;SDS011;11708;50.570;8.532;2023-03-01T04:54:27;17.70;;;9.52;;
23080;SDS011;11708;50.570;8.532;2023-03-01T04:56:53;19.13;;;10.48;;
23080;SDS011;11708;50.570;8.532;2023-03-01T04:59:20;16.98;;;9.52;;
23080;SDS011;11708;50.570;8.532;2023-03-01T05:01:49;22.80;;;11.25;;
23080;SDS011;11708;50.570;8.532;2023-03-01T05:04:15;20.98;;;10.48;;
23080;SDS011;11708;50.570;8.532;2023-03-01T05:06:41;18.33;;;10.80;;
23080;SDS011;11708;50.570;8.532;2023-03-01T05:09:07;20.08;;;11.38;;
23080;SDS011;11708;50.570;8.532;2023-03-01T05:11:33;27.63;;;10.80;;
23080;SDS011;11708;50.570;8.532;2023-03-01T05:14:01;24.08;;;11.48;;
23080;SDS011;11708;50.570;8.532;2023-03-01T05:16:27;18.95;;;10.25;;
23080;SDS011;11708;50.570;8.532;2023-03-01T05:18:53;16.73;;;9.10;;
23080;SDS011;11708;50.570;8.532;2023-03-01T05:21:20;22.33;;;11.68;;
23080;SDS011;11708;50.570;8.532;2023-03-01T05:23:46;18.80;;;10.07;;
23080;SDS011;11708;50.570;8.532;2023-03-01T05:26:12;18.30;;;9.45;;
23080;SDS011;11708;50.570;8.532;2023-03-01T05:28:38;21.13;;;10.88;;
23080;SDS011;11708;50.570;8.532;2023-03-01T05:31:04;19.25;;;10.80;;
23080;SDS011;11708;50.570;8.532;2023-03-01T05:33:34;21.45;;;11.40;;
23080;SDS011;11708;50.570;8.532;2023-03-01T05:36:04;21.60;;;10.18;;
23080;SDS011;11708;50.570;8.532;2023-03-01T05:38:31;21.23;;;10.82;;
23080;SDS011;11708;50.570;8.532;2023-03-01T05:40:57;24.55;;;10.93;;
23080;SDS011;11708;50.570;8.532;2023-03-01T05:43:22;26.15;;;10.95;;
23080;SDS011;11708;50.570;8.532;2023-03-01T05:45:48;17.42;;;9.85;;
23080;SDS011;11708;50.570;8.532;2023-03-01T05:48:13;21.98;;;10.25;;
23080;SDS011;11708;50.570;8.532;2023-03-01T05:50:40;24.48;;;11.57;;
23080;SDS011;11708;50.570;8.532;2023-03-01T05:53:09;20.38;;;9.75;;
23080;SDS011;11708;50.570;8.532;2023-03-01T05:55:36;22.38;;;11.38;;
23080;SDS011;11708;50.570;8.532;2023-03-01T05:58:04;19.05;;;10.88;;
23080;SDS011;11708;50.570;8.532;2023-03-01T06:00:34;20.23;;;10.32;;
23080;SDS011;11708;50.570;8.532;2023-03-01T06:03:00;22.40;;;11.25;;
23080;SDS011;11708;50.570;8.532;2023-03-01T06:05:27;17.60;;;10.23;;
23080;SDS011;11708;50.570;8.532;2023-03-01T06:07:53;20.25;;;10.80;;
23080;SDS011;11708;50.570;8.532;2023-03-01T06:10:20;25.02;;;11.50;;
23080;SDS011;11708;50.570;8.532;2023-03-01T06:12:46;19.55;;;10.32;;
23080;SDS011;11708;50.570;8.532;2023-03-01T06:15:13;20.88;;;10.95;;
23080;SDS011;11708;50.570;8.532;2023-03-01T06:17:40;22.55;;;11.32;;
23080;SDS011;11708;50.570;8.532;2023-03-01T06:20:11;22.90;;;11.65;;
23080;SDS011;11708;50.570;8.532;2023-03-01T06:22:39;21.75;;;11.07;;
23080;SDS011;11708;50.570;8.532;2023-03-01T06:25:05;22.58;;;11.38;;
23080;SDS011;11708;50.570;8.532;2023-03-01T06:27:31;24.10;;;11.40;;
23080;SDS011;11708;50.570;8.532;2023-03-01T06:29:57;30.38;;;13.48;;
23080;SDS011;11708;50.570;8.532;2023-03-01T06:32:22;22.05;;;11.73;;
23080;SDS011;11708;50.570;8.532;2023-03-01T06:34:49;20.23;;;10.52;;
23080;SDS011;11708;50.570;8.532;2023-03-01T06:37:14;20.30;;;11.25;;
23080;SDS011;11708;50.570;8.532;2023-03-01T06:39:41;26.50;;;11.77;;
23080;SDS011;11708;50.570;8.532;2023-03-01T06:42:07;24.95;;;13.48;;
23080;SDS011;11708;50.570;8.532;2023-03-01T06:44:34;22.08;;;11.02;;
23080;SDS011;11708;50.570;8.532;2023-03-01T06:47:00;23.02;;;11.15;;
23080;SDS011;11708;50.570;8.532;2023-03-01T06:49:26;24.48;;;11.20;;
23080;SDS011;11708;50.570;8.532;2023-03-01T06:51:52;26.15;;;12.27;;
23080;SDS011;11708;50.570;8.532;2023-03-01T06:54:18;22.15;;;10.88;;
23080;SDS011;11708;50.570;8.532;2023-03-01T06:56:46;31.73;;;13.98;;
23080;SDS011;11708;50.570;8.532;2023-03-01T06:59:12;27.65;;;13.00;;
23080;SDS011;11708;50.570;8.532;2023-03-01T07:01:38;21.80;;;11.98;;
23080;SDS011;11708;50.570;8.532;2023-03-01T07:04:04;24.30;;;11.95;;
23080;SDS011;11708;50.570;8.532;2023-03-01T07:06:30;27.08;;;13.52;;
23080;SDS011;11708;50.570;8.532;2023-03-01T07:08:55;22.40;;;11.63;;
23080;SDS011;11708;50.570;8.532;2023-03-01T07:11:21;23.60;;;11.73;;
23080;SDS011;11708;50.570;8.532;2023-03-01T07:13:47;23.92;;;11.30;;
23080;SDS011;11708;50.570;8.532;2023-03-01T07:16:13;23.92;;;12.25;;
23080;SDS011;11708;50.570;8.532;2023-03-01T07:18:39;25.10;;;12.30;;
23080;SDS011;11708;50.570;8.532;2023-03-01T07:21:06;21.83;;;11.73;;
23080;SDS011;11708;50.570;8.532;2023-03-01T07:23:32;23.35;;;12.35;;
23080;SDS011;11708;50.570;8.532;2023-03-01T07:25:58;20.48;;;11.40;;
23080;SDS011;11708;50.570;8.532;2023-03-01T07:28:25;21.80;;;11.38;;
23080;SDS011;11708;50.570;8.532;2023-03-01T07:30:51;21.15;;;11.40;;
23080;SDS011;11708;50.570;8.532;2023-03-01T07:33:18;20.05;;;10.82;;
23080;SDS011;11708;50.570;8.532;2023-03-01T07:35:44;24.08;;;12.48;;
23080;SDS011;11708;50.570;8.532;2023-03-01T07:38:10;20.02;;;11.05;;
23080;SDS011;11708;50.570;8.532;2023-03-01T07:40:35;22.10;;;11.70;;
23080;SDS011;11708;50.570;8.532;2023-03-01T07:43:01;21.55;;;11.18;;
23080;SDS011;11708;50.570;8.532;2023-03-01T07:45:28;18.23;;;11.00;;
23080;SDS011;11708;50.570;8.532;2023-03-01T07:47:54;20.73;;;10.55;;
23080;SDS011;11708;50.570;8.532;2023-03-01T07:50:20;19.50;;;10.65;;
23080;SDS011;11708;50.570;8.532;2023-03-01T07:52:46;20.42;;;11.20;;
23080;SDS011;11708;50.570;8.532;2023-03-01T07:55:13;21.65;;;11.23;;
23080;SDS011;11708;50.570;8.532;2023-03-01T07:57:40;18.88;;;11.23;;
23080;SDS011;11708;50.570;8.532;2023-03-01T08:00:06;18.15;;;10.20;;
23080;SDS011;11708;50.570;8.532;2023-03-01T08:02:32;19.75;;;11.60;;
23080;SDS011;11708;50.570;8.532;2023-03-01T08:04:58;21.27;;;11.43;;
23080;SDS011;11708;50.570;8.532;2023-03-01T08:07:24;20.17;;;11.02;;
23080;SDS011;11708;50.570;8.532;2023-03-01T08:09:49;20.58;;;11.20;;
23080;SDS011;11708;50.570;8.532;2023-03-01T08:12:15;20.60;;;10.77;;
23080;SDS011;11708;50.570;8.532;2023-03-01T08:14:41;21.92;;;10.07;;
23080;SDS011;11708;50.570;8.532;2023-03-01T08:17:07;18.00;;;10.23;;
23080;SDS011;11708;50.570;8.532;2023-03-01T08:19:33;19.13;;;10.38;;
23080;SDS011;11708;50.570;8.532;2023-03-01T08:21:59;17.98;;;10.43;;
23080;SDS011;11708;50.570;8.532;2023-03-01T08:24:26;18.40;;;10.48;;
23080;SDS011;11708;50.570;8.532;2023-03-01T08:26:52;23.73;;;11.02;;
23080;SDS011;11708;50.570;8.532;2023-03-01T08:29:17;18.50;;;10.23;;
23080;SDS011;11708;50.570;8.532;2023-03-01T08:31:43;21.73;;;10.65;;
23080;SDS011;11708;50.570;8.532;2023-03-01T08:34:10;19.67;;;10.20;;
23080;SDS011;11708;50.570;8.532;2023-03-01T08:36:40;21.13;;;9.60;;
23080;SDS011;11708;50.570;8.532;2023-03-01T08:39:08;20.58;;;10.88;;
23080;SDS011;11708;50.570;8.532;2023-03-01T08:41:35;21.80;;;11.32;;
23080;SDS011;11708;50.570;8.532;2023-03-01T08:44:01;16.63;;;9.50;;
23080;SDS011;11708;50.570;8.532;2023-03-01T08:46:28;20.42;;;10.32;;
23080;SDS011;11708;50.570;8.532;2023-03-01T08:48:58;18.27;;;10.82;;
23080;SDS011;11708;50.570;8.532;2023-03-01T08:51:25;19.45;;;10.07;;
23080;SDS011;11708;50.570;8.532;2023-03-01T08:53:51;19.67;;;10.85;;
23080;SDS011;11708;50.570;8.532;2023-03-01T08:56:18;18.17;;;9.68;;
23080;SDS011;11708;50.570;8.532;2023-03-01T08:58:44;18.25;;;10.20;;
23080;SDS011;11708;50.570;8.532;2023-03-01T09:01:13;17.50;;;10.13;;
23080;SDS011;11708;50.570;8.532;2023-03-01T09:03:43;19.27;;;10.52;;
23080;SDS011;11708;50.570;8.532;2023-03-01T09:06:10;20.33;;;9.93;;
23080;SDS011;11708;50.570;8.532;2023-03-01T09:08:37;21.77;;;12.20;;
23080;SDS011;11708;50.570;8.532;2023-03-01T09:11:05;19.35;;;11.57;;
23080;SDS011;11708;50.570;8.532;2023-03-01T09:13:32;20.50;;;10.63;;
23080;SDS011;11708;50.570;8.532;2023-03-01T09:15:58;18.10;;;9.88;;
23080;SDS011;11708;50.570;8.532;2023-03-01T09:18:26;16.48;;;9.38;;
23080;SDS011;11708;50.570;8.532;2023-03-01T09:20:52;16.77;;;9.82;;
23080;SDS011;11708;50.570;8.532;2023-03-01T09:23:20;18.52;;;9.23;;
23080;SDS011;11708;50.570;8.532;2023-03-01T09:25:46;18.05;;;9.60;;
23080;SDS011;11708;50.570;8.532;2023-03-01T09:28:11;14.93;;;9.15;;
23080;SDS011;11708;50.570;8.532;2023-03-01T09:30:37;14.07;;;8.77;;
23080;SDS011;11708;50.570;8.532;2023-03-01T09:33:02;16.63;;;9.98;;
23080;SDS011;11708;50.570;8.532;2023-03-01T09:35:28;18.65;;;8.52;;
23080;SDS011;11708;50.570;8.532;2023-03-01T09:37:54;17.20;;;9.43;;
23080;SDS011;11708;50.570;8.532;2023-03-01T09:40:20;17.85;;;9.40;;
23080;SDS011;11708;50.570;8.532;2023-03-01T09:45:32;16.08;;;8.52;;
23080;SDS011;11708;50.570;8.532;2023-03-01T09:48:00;14.63;;;8.50;;
23080;SDS011;11708;50.570;8.532;2023-03-01T09:50:30;18.20;;;9.10;;
23080;SDS011;11708;50.570;8.532;2023-03-01T09:53:06;18.67;;;9.30;;
23080;SDS011;11708;50.570;8.532;2023-03-01T09:55:42;18.20;;;8.95;;
23080;SDS011;11708;50.570;8.532;2023-03-01T10:01:02;14.80;;;7.90;;
23080;SDS011;11708;50.570;8.532;2023-03-01T10:06:41;13.80;;;9.05;;
23080;SDS011;11708;50.570;8.532;2023-03-01T10:09:16;20.38;;;8.45;;
23080;SDS011;11708;50.570;8.532;2023-03-01T10:11:47;15.48;;;8.93;;
23080;SDS011;11708;50.570;8.532;2023-03-01T10:16:57;14.05;;;8.23;;
23080;SDS011;11708;50.570;8.532;2023-03-01T10:19:35;18.17;;;9.00;;
23080;SDS011;11708;50.570;8.532;2023-03-01T10:22:19;13.88;;;8.68;;
23080;SDS011;11708;50.570;8.532;2023-03-01T10:24:58;15.88;;;9.10;;
23080;SDS011;11708;50.570;8.532;2023-03-01T10:33:05;12.95;;;7.95;;
23080;SDS011;11708;50.570;8.532;2023-03-01T10:35:48;15.30;;;8.27;;
23080;SDS011;11708;50.570;8.532;2023-03-01T10:38:15;14.75;;;8.45;;
23080;SDS011;11708;50.570;8.532;2023-03-01T10:40:57;15.43;;;8.55;;
23080;SDS011;11708;50.570;8.532;2023-03-01T10:43:43;14.48;;;9.07;;
23080;SDS011;11708;50.570;8.532;2023-03-01T10:46:33;17.25;;;8.35;;
23080;SDS011;11708;50.570;8.532;2023-03-01T10:49:07;16.85;;;9.10;;
23080;SDS011;11708;50.570;8.532;2023-03-01T10:51:47;15.70;;;9.38;;
23080;SDS011;11708;50.570;8.532;2023-03-01T10:54:32;15.35;;;8.65;;
23080;SDS011;11708;50.570;8.532;2023-03-01T10:56:59;13.52;;;9.10;;
23080;SDS011;11708;50.570;8.532;2023-03-01T10:59:31;14.55;;;8.82;;
23080;SDS011;11708;50.570;8.532;2023-03-01T11:02:03;13.55;;;9.13;;
23080;SDS011;11708;50.570;8.532;2023-03-01T11:04:39;15.20;;;9.40;;
23080;SDS011;11708;50.570;8.532;2023-03-01T11:07:27;16.52;;;9.10;;
23080;SDS011;11708;50.570;8.532;2023-03-01T11:09:53;12.63;;;8.35;;
23080;SDS011;11708;50.570;8.532;2023-03-01T11:12:19;15.30;;;8.82;;
23080;SDS011;11708;50.570;8.532;2023-03-01T11:15:04;16.33;;;10.07;;
23080;SDS011;11708;50.570;8.532;2023-03-01T11:17:30;14.82;;;9.73;;
23080;SDS011;11708;50.570;8.532;2023-03-01T11:22:49;17.40;;;9.32;;
23080;SDS011;11708;50.570;8.532;2023-03-01T11:25:19;13.77;;;8.75;;
23080;SDS011;11708;50.570;8.532;2023-03-01T11:28:01;19.15;;;10.10;;
23080;SDS011;11708;50.570;8.532;2023-03-01T11:35:33;14.40;;;9.52;;
23080;SDS011;11708;50.570;8.532;2023-03-01T11:40:35;15.15;;;9.70;;
23080;SDS011;11708;50.570;8.532;2023-03-01T11:43:21;15.70;;;8.90;;
23080;SDS011;11708;50.570;8.532;2023-03-01T11:51:50;13.73;;;8.65;;
23080;SDS011;11708;50.570;8.532;2023-03-01T11:57:11;12.63;;;9.07;;
23080;SDS011;11708;50.570;8.532;2023-03-01T12:13:27;14.13;;;9.80;;
23080;SDS011;11708;50.570;8.532;2023-03-01T12:21:30;12.95;;;9.13;;
23080;SDS011;11708;50.570;8.532;2023-03-01T12:26:53;14.27;;;9.48;;
23080;SDS011;11708;50.570;8.532;2023-03-01T12:29:42;16.08;;;10.45;;
23080;SDS011;11708;50.570;8.532;2023-03-01T12:49:08;18.17;;;12.13;;
23080;SDS011;11708;50.570;8.532;2023-03-01T12:51:54;12.48;;;9.30;;
23080;SDS011;11708;50.570;8.532;2023-03-01T12:54:35;12.43;;;8.57;;
23080;SDS011;11708;50.570;8.532;2023-03-01T12:59:41;11.27;;;8.13;;
23080;SDS011;11708;50.570;8.532;2023-03-01T13:02:38;10.77;;;8.30;;
23080;SDS011;11708;50.570;8.532;2023-03-01T13:08:02;14.70;;;9.02;;
23080;SDS011;11708;50.570;8.532;2023-03-01T13:10:56;13.05;;;9.27;;
23080;SDS011;11708;50.570;8.532;2023-03-01T13:13:26;13.52;;;9.30;;
23080;SDS011;11708;50.570;8.532;2023-03-01T13:15:53;12.20;;;8.57;;
23080;SDS011;11708;50.570;8.532;2023-03-01T13:20:47;12.18;;;8.18;;
23080;SDS011;11708;50.570;8.532;2023-03-01T13:28:45;11.20;;;8.07;;
23080;SDS011;11708;50.570;8.532;2023-03-01T13:33:51;10.88;;;8.50;;
23080;SDS011;11708;50.570;8.532;2023-03-01T13:41:53;11.65;;;8.25;;
23080;SDS011;11708;50.570;8.532;2023-03-01T13:46:50;14.90;;;8.50;;
23080;SDS011;11708;50.570;8.532;2023-03-01T13:49:53;11.20;;;7.78;;
23080;SDS011;11708;50.570;8.532;2023-03-01T13:52:41;12.90;;;7.82;;
23080;SDS011;11708;50.570;8.532;2023-03-01T13:55:21;13.38;;;8.65;;
23080;SDS011;11708;50.570;8.532;2023-03-01T13:57:51;11.13;;;7.78;;
23080;SDS011;11708;50.570;8.532;2023-03-01T14:00:35;14.23;;;9.15;;
23080;SDS011;11708;50.570;8.532;2023-03-01T14:05:40;9.65;;;7.70;;
23080;SDS011;11708;50.570;8.532;2023-03-01T14:08:21;10.48;;;7.63;;
23080;SDS011;11708;50.570;8.532;2023-03-01T14:10:54;10.77;;;8.32;;
23080;SDS011;11708;50.570;8.532;2023-03-01T14:13:39;10.57;;;8.05;;
23080;SDS011;11708;50.570;8.532;2023-03-01T14:16:31;10.90;;;7.38;;
23080;SDS011;11708;50.570;8.532;2023-03-01T14:19:23;11.50;;;8.30;;
23080;SDS011;11708;50.570;8.532;2023-03-01T14:24:27;10.63;;;7.22;;
23080;SDS011;11708;50.570;8.532;2023-03-01T14:26:54;10.05;;;7.70;;
23080;SDS011;11708;50.570;8.532;2023-03-01T14:29:36;10.63;;;7.68;;
23080;SDS011;11708;50.570;8.532;2023-03-01T14:34:44;9.23;;;7.47;;
23080;SDS011;11708;50.570;8.532;2023-03-01T14:37:17;13.52;;;8.95;;
23080;SDS011;11708;50.570;8.532;2023-03-01T14:39:45;10.55;;;7.60;;
23080;SDS011;11708;50.570;8.532;2023-03-01T14:42:11;8.13;;;6.70;;
23080;SDS011;11708;50.570;8.532;2023-03-01T14:44:40;9.52;;;7.07;;
23080;SDS011;11708;50.570;8.532;2023-03-01T14:47:12;10.90;;;7.75;;
23080;SDS011;11708;50.570;8.532;2023-03-01T14:49:43;10.02;;;7.30;;
23080;SDS011;11708;50.570;8.532;2023-03-01T14:52:20;9.77;;;7.10;;
23080;SDS011;11708;50.570;8.532;2023-03-01T14:54:50;10.27;;;7.30;;
23080;SDS011;11708;50.570;8.532;2023-03-01T14:57:19;9.63;;;7.85;;
23080;SDS011;11708;50.570;8.532;2023-03-01T14:59:50;11.02;;;7.60;;
23080;SDS011;11708;50.570;8.532;2023-03-01T15:02:20;9.30;;;7.30;;
23080;SDS011;11708;50.570;8.532;2023-03-01T15:04:49;7.65;;;6.35;;
23080;SDS011;11708;50.570;8.532;2023-03-01T15:07:25;11.40;;;6.68;;
23080;SDS011;11708;50.570;8.532;2023-03-01T15:09:54;9.63;;;6.75;;
23080;SDS011;11708;50.570;8.532;2023-03-01T15:12:39;9.55;;;6.90;;
23080;SDS011;11708;50.570;8.532;2023-03-01T15:15:20;9.90;;;6.97;;
23080;SDS011;11708;50.570;8.532;2023-03-01T15:17:53;10.23;;;7.75;;
23080;SDS011;11708;50.570;8.532;2023-03-01T15:20:22;8.43;;;6.13;;
23080;SDS011;11708;50.570;8.532;2023-03-01T15:22:50;9.38;;;6.55;;
23080;SDS011;11708;50.570;8.532;2023-03-01T15:25:18;8.80;;;6.13;;
23080;SDS011;11708;50.570;8.532;2023-03-01T15:27:46;10.00;;;6.57;;
23080;SDS011;11708;50.570;8.532;2023-03-01T15:30:17;8.75;;;6.78;;
23080;SDS011;11708;50.570;8.532;2023-03-01T15:32:45;9.77;;;7.00;;
23080;SDS011;11708;50.570;8.532;2023-03-01T15:40:59;12.18;;;6.60;;
23080;SDS011;11708;50.570;8.532;2023-03-01T15:43:37;10.98;;;7.22;;
23080;SDS011;11708;50.570;8.532;2023-03-01T15:46:04;11.05;;;7.00;;
23080;SDS011;11708;50.570;8.532;2023-03-01T15:48:30;11.55;;;6.70;;
23080;SDS011;11708;50.570;8.532;2023-03-01T15:50:56;11.85;;;7.68;;
23080;SDS011;11708;50.570;8.532;2023-03-01T15:53:23;10.90;;;7.30;;
23080;SDS011;11708;50.570;8.532;2023-03-01T15:55:52;9.43;;;6.88;;
23080;SDS011;11708;50.570;8.532;2023-03-01T15:58:21;11.25;;;6.70;;
23080;SDS011;11708;50.570;8.532;2023-03-01T16:00:49;11.40;;;6.78;;
23080;SDS011;11708;50.570;8.532;2023-03-01T16:03:20;10.48;;;6.43;;
23080;SDS011;11708;50.570;8.532;2023-03-01T16:05:47;8.80;;;6.60;;
23080;SDS011;11708;50.570;8.532;2023-03-01T16:08:16;9.65;;;6.20;;
23080;SDS011;11708;50.570;8.532;2023-03-01T16:10:43;13.63;;;7.10;;
23080;SDS011;11708;50.570;8.532;2023-03-01T16:13:12;10.48;;;7.00;;
23080;SDS011;11708;50.570;8.532;2023-03-01T16:15:38;54.53;;;26.20;;
23080;SDS011;11708;50.570;8.532;2023-03-01T16:18:04;61.90;;;25.65;;
23080;SDS011;11708;50.570;8.532;2023-03-01T16:20:31;12.35;;;8.93;;
23080;SDS011;11708;50.570;8.532;2023-03-01T16:22:58;9.65;;;6.32;;
23080;SDS011;11708;50.570;8.532;2023-03-01T16:25:27;9.60;;;6.35;;
23080;SDS011;11708;50.570;8.532;2023-03-01T16:27:54;10.30;;;6.55;;
23080;SDS011;11708;50.570;8.532;2023-03-01T16:30:21;13.10;;;6.88;;
23080;SDS011;11708;50.570;8.532;2023-03-01T16:32:47;9.90;;;6.47;;
23080;SDS011;11708;50.570;8.532;2023-03-01T16:35:15;11.68;;;7.03;;
23080;SDS011;11708;50.570;8.532;2023-03-01T16:37:42;9.75;;;6.50;;
23080;SDS011;11708;50.570;8.532;2023-03-01T16:40:22;9.48;;;6.35;;
23080;SDS011;11708;50.570;8.532;2023-03-01T16:42:51;12.40;;;8.23;;
23080;SDS011;11708;50.570;8.532;2023-03-01T16:45:17;13.25;;;7.10;;
23080;SDS011;11708;50.570;8.532;2023-03-01T16:47:43;9.93;;;7.25;;